Atwood, Illinois
Current Conditions -  °F | °C
As of 9:53 PM on Friday 24 Oct 2014 (Local Time) from KCMI Reporting Station
Haze Haze  
Wind Chill: 54°   Ceiling: 4800
Heat Index: 54°   Visibility: 5mi
Dew Point: 52°   Wind: 3mph
Humidity: 93%   Direction: 200°SSW
Pressure: 30.02"   Gusts: NA
Location:  39.8°N, 88.46°W
Report Text: KCMI 250253Z 20003KT 5SM BR BKN048 12/11 A3002 RMK AO2 SLP165 T01220111 53000 $
Loading
Personal Weather Stations






























Interactive Weather Map
Tropical Storm Tracking
New forecast layout! Learn more

10-Day Weather Forecast

Advertisements
Track Severe Weather on mobile